Mirage, Colorado
Current Conditions -  °F | °C
As of 5:14 AM on Saturday 25 Oct 2014 (Local Time) from K04V Reporting Station
Clear Clear  
Wind Chill: 32°   Ceiling: Unl
Heat Index: 39°   Visibility: 10mi
Dew Point: 19°   Wind: 13mph
Humidity: 45%   Direction: 340°NNW
Pressure: 30.43"   Gusts: NA
Location:  37.9777°N, 105.779°W
Report Text: K04V 251114Z AUTO 34011KT 10SM CLR 04/M07 A3043 RMK AO2
Loading
Personal Weather Stations






























Interactive Weather Map
Tropical Storm Tracking
New forecast layout! Learn more

10-Day Weather Forecast

Advertisements
Track Severe Weather on mobile